sensor_id;sensor_type;location;lat;lon;timestamp;pressure;altitude;pressure_sealevel;temperature;humidity
15263;BME280;7733;51.554;13.590;2022-07-11T00:00:13;100904.34;;;16.42;59.05
15263;BME280;7733;51.554;13.590;2022-07-11T00:02:40;100902.47;;;16.46;58.84
15263;BME280;7733;51.554;13.590;2022-07-11T00:05:08;100905.97;;;16.47;59.09
15263;BME280;7733;51.554;13.590;2022-07-11T00:07:35;100910.75;;;16.34;59.57
15263;BME280;7733;51.554;13.590;2022-07-11T00:10:02;100899.50;;;16.27;59.74
15263;BME280;7733;51.554;13.590;2022-07-11T00:12:28;100902.75;;;16.35;59.55
15263;BME280;7733;51.554;13.590;2022-07-11T00:14:54;100902.81;;;16.34;59.56
15263;BME280;7733;51.554;13.590;2022-07-11T00:17:20;100882.31;;;16.11;60.25
15263;BME280;7733;51.554;13.590;2022-07-11T00:19:46;100904.34;;;16.11;60.31
15263;BME280;7733;51.554;13.590;2022-07-11T00:22:12;100900.66;;;15.86;61.02
15263;BME280;7733;51.554;13.590;2022-07-11T00:24:38;100903.13;;;15.92;61.10
15263;BME280;7733;51.554;13.590;2022-07-11T00:27:04;100893.19;;;16.00;60.60
15263;BME280;7733;51.554;13.590;2022-07-11T00:29:31;100891.03;;;15.84;61.09
15263;BME280;7733;51.554;13.590;2022-07-11T00:31:58;100893.47;;;15.91;61.02
15263;BME280;7733;51.554;13.590;2022-07-11T00:34:24;100893.50;;;15.56;62.33
15263;BME280;7733;51.554;13.590;2022-07-11T00:36:50;100891.53;;;15.96;60.71
15263;BME280;7733;51.554;13.590;2022-07-11T00:39:16;100895.28;;;15.89;61.16
15263;BME280;7733;51.554;13.590;2022-07-11T00:41:42;100893.44;;;15.59;62.37
15263;BME280;7733;51.554;13.590;2022-07-11T00:44:08;100894.97;;;15.69;61.75
15263;BME280;7733;51.554;13.590;2022-07-11T00:46:34;100892.56;;;15.58;62.38
15263;BME280;7733;51.554;13.590;2022-07-11T00:49:00;100898.19;;;15.46;62.78
15263;BME280;7733;51.554;13.590;2022-07-11T00:51:27;100890.44;;;15.38;63.14
15263;BME280;7733;51.554;13.590;2022-07-11T00:53:56;100896.53;;;15.40;63.12
15263;BME280;7733;51.554;13.590;2022-07-11T00:56:31;100896.88;;;15.28;63.27
15263;BME280;7733;51.554;13.590;2022-07-11T00:58:58;100891.28;;;15.05;64.57
15263;BME280;7733;51.554;13.590;2022-07-11T01:01:25;100891.50;;;14.96;64.70
15263;BME280;7733;51.554;13.590;2022-07-11T01:03:50;100902.97;;;14.95;64.93
15263;BME280;7733;51.554;13.590;2022-07-11T01:06:16;100886.50;;;15.19;63.93
15263;BME280;7733;51.554;13.590;2022-07-11T01:08:43;100891.22;;;15.08;64.54
15263;BME280;7733;51.554;13.590;2022-07-11T01:11:11;100891.13;;;15.11;64.19
15263;BME280;7733;51.554;13.590;2022-07-11T01:13:45;100893.31;;;14.94;65.12
15263;BME280;7733;51.554;13.590;2022-07-11T01:16:14;100896.78;;;14.96;65.08
15263;BME280;7733;51.554;13.590;2022-07-11T01:18:45;100893.31;;;14.94;65.25
15263;BME280;7733;51.554;13.590;2022-07-11T01:21:38;100889.44;;;14.71;66.16
15263;BME280;7733;51.554;13.590;2022-07-11T01:24:05;100896.38;;;14.75;65.95
15263;BME280;7733;51.554;13.590;2022-07-11T01:26:31;100900.22;;;14.62;66.79
15263;BME280;7733;51.554;13.590;2022-07-11T01:29:11;100901.09;;;14.61;66.74
15263;BME280;7733;51.554;13.590;2022-07-11T01:31:40;100901.22;;;14.55;66.99
15263;BME280;7733;51.554;13.590;2022-07-11T01:34:06;100897.75;;;14.53;67.33
15263;BME280;7733;51.554;13.590;2022-07-11T01:36:32;100895.41;;;14.38;67.53
15263;BME280;7733;51.554;13.590;2022-07-11T01:38:58;100898.84;;;14.41;67.86
15263;BME280;7733;51.554;13.590;2022-07-11T01:41:23;100897.31;;;14.31;68.03
15263;BME280;7733;51.554;13.590;2022-07-11T01:43:50;100903.00;;;14.11;68.84
15263;BME280;7733;51.554;13.590;2022-07-11T01:46:15;100902.94;;;14.14;68.98
15263;BME280;7733;51.554;13.590;2022-07-11T01:48:42;100905.78;;;14.48;67.51
15263;BME280;7733;51.554;13.590;2022-07-11T01:51:08;100896.63;;;14.23;68.49
15263;BME280;7733;51.554;13.590;2022-07-11T01:53:33;100896.75;;;14.15;69.17
15263;BME280;7733;51.554;13.590;2022-07-11T01:55:59;100890.44;;;14.24;68.50
15263;BME280;7733;51.554;13.590;2022-07-11T01:58:25;100905.50;;;14.17;69.18
15263;BME280;7733;51.554;13.590;2022-07-11T02:00:50;100898.72;;;14.07;69.30
15263;BME280;7733;51.554;13.590;2022-07-11T02:03:16;100898.88;;;13.98;69.71
15263;BME280;7733;51.554;13.590;2022-07-11T02:05:42;100894.41;;;14.03;69.49
15263;BME280;7733;51.554;13.590;2022-07-11T02:08:09;100892.19;;;13.82;70.65
15263;BME280;7733;51.554;13.590;2022-07-11T02:10:56;100888.88;;;13.70;70.95
15263;BME280;7733;51.554;13.590;2022-07-11T02:13:23;100894.94;;;13.74;71.36
15263;BME280;7733;51.554;13.590;2022-07-11T02:15:51;100892.34;;;13.73;71.25
15263;BME280;7733;51.554;13.590;2022-07-11T02:18:19;100889.00;;;13.64;71.72
15263;BME280;7733;51.554;13.590;2022-07-11T02:20:46;100890.59;;;13.72;71.33
15263;BME280;7733;51.554;13.590;2022-07-11T02:23:12;100888.16;;;13.61;71.56
15263;BME280;7733;51.554;13.590;2022-07-11T02:25:38;100898.69;;;13.62;71.62
15263;BME280;7733;51.554;13.590;2022-07-11T02:28:05;100899.13;;;13.36;73.00
15263;BME280;7733;51.554;13.590;2022-07-11T02:30:40;100895.16;;;13.63;71.76
15263;BME280;7733;51.554;13.590;2022-07-11T02:33:07;100897.41;;;13.83;70.76
15263;BME280;7733;51.554;13.590;2022-07-11T02:35:34;100892.28;;;13.76;71.15
15263;BME280;7733;51.554;13.590;2022-07-11T02:38:01;100897.53;;;13.76;71.06
15263;BME280;7733;51.554;13.590;2022-07-11T02:40:27;100898.00;;;13.97;70.05
15263;BME280;7733;51.554;13.590;2022-07-11T02:42:53;100896.75;;;13.72;70.75
15263;BME280;7733;51.554;13.590;2022-07-11T02:45:20;100903.19;;;13.56;72.28
15263;BME280;7733;51.554;13.590;2022-07-11T02:47:46;100912.72;;;13.64;71.63
15263;BME280;7733;51.554;13.590;2022-07-11T02:50:14;100910.81;;;13.22;73.82
15263;BME280;7733;51.554;13.590;2022-07-11T02:52:41;100907.34;;;13.18;74.27
15263;BME280;7733;51.554;13.590;2022-07-11T02:55:10;100904.47;;;13.33;73.58
15263;BME280;7733;51.554;13.590;2022-07-11T02:57:37;100915.75;;;13.40;73.21
15263;BME280;7733;51.554;13.590;2022-07-11T03:00:06;100914.88;;;13.39;73.11
15263;BME280;7733;51.554;13.590;2022-07-11T03:02:33;100923.03;;;13.26;74.08
15263;BME280;7733;51.554;13.590;2022-07-11T03:04:58;100922.50;;;13.04;75.25
15263;BME280;7733;51.554;13.590;2022-07-11T03:07:26;100917.81;;;13.21;74.57
15263;BME280;7733;51.554;13.590;2022-07-11T03:09:53;100917.19;;;13.05;75.18
15263;BME280;7733;51.554;13.590;2022-07-11T03:12:19;100924.47;;;12.88;76.89
15263;BME280;7733;51.554;13.590;2022-07-11T03:14:45;100923.88;;;12.69;78.17
15263;BME280;7733;51.554;13.590;2022-07-11T03:17:10;100921.63;;;13.00;76.37
15263;BME280;7733;51.554;13.590;2022-07-11T03:19:36;100929.50;;;13.05;75.73
15263;BME280;7733;51.554;13.590;2022-07-11T03:22:03;100933.75;;;13.12;75.91
15263;BME280;7733;51.554;13.590;2022-07-11T03:24:29;100937.34;;;13.08;75.71
15263;BME280;7733;51.554;13.590;2022-07-11T03:26:55;100936.25;;;13.21;75.10
15263;BME280;7733;51.554;13.590;2022-07-11T03:29:21;100946.06;;;13.12;76.06
15263;BME280;7733;51.554;13.590;2022-07-11T03:31:47;100938.03;;;13.21;75.53
15263;BME280;7733;51.554;13.590;2022-07-11T03:34:12;100947.69;;;13.20;75.44
15263;BME280;7733;51.554;13.590;2022-07-11T03:36:38;100945.09;;;13.16;75.97
15263;BME280;7733;51.554;13.590;2022-07-11T03:39:04;100938.91;;;13.21;75.70
15263;BME280;7733;51.554;13.590;2022-07-11T03:41:30;100943.44;;;13.12;75.75
15263;BME280;7733;51.554;13.590;2022-07-11T03:43:55;100924.44;;;12.90;76.80
15263;BME280;7733;51.554;13.590;2022-07-11T03:46:22;100934.75;;;13.05;76.53
15263;BME280;7733;51.554;13.590;2022-07-11T03:48:49;100931.56;;;12.83;77.55
15263;BME280;7733;51.554;13.590;2022-07-11T03:51:16;100941.16;;;12.87;77.71
15263;BME280;7733;51.554;13.590;2022-07-11T03:53:42;100940.56;;;12.67;79.34
15263;BME280;7733;51.554;13.590;2022-07-11T03:56:08;100943.81;;;12.86;78.99
15263;BME280;7733;51.554;13.590;2022-07-11T03:58:34;100947.38;;;12.83;79.00
15263;BME280;7733;51.554;13.590;2022-07-11T04:00:59;100936.84;;;12.80;79.39
15263;BME280;7733;51.554;13.590;2022-07-11T04:03:25;100941.38;;;12.72;80.03
15263;BME280;7733;51.554;13.590;2022-07-11T04:05:51;100933.94;;;13.00;78.46
15263;BME280;7733;51.554;13.590;2022-07-11T04:08:17;100946.50;;;12.81;79.80
15263;BME280;7733;51.554;13.590;2022-07-11T04:10:43;100946.22;;;13.02;78.90
15263;BME280;7733;51.554;13.590;2022-07-11T04:13:09;100939.22;;;13.01;78.45
15263;BME280;7733;51.554;13.590;2022-07-11T04:15:34;100956.88;;;12.93;79.26
15263;BME280;7733;51.554;13.590;2022-07-11T04:18:00;100958.50;;;13.03;78.67
15263;BME280;7733;51.554;13.590;2022-07-11T04:20:26;100957.41;;;13.15;78.48
15263;BME280;7733;51.554;13.590;2022-07-11T04:22:52;100954.97;;;13.04;79.13
15263;BME280;7733;51.554;13.590;2022-07-11T04:25:17;100952.06;;;13.23;77.84
15263;BME280;7733;51.554;13.590;2022-07-11T04:27:43;100955.59;;;13.20;78.56
15263;BME280;7733;51.554;13.590;2022-07-11T04:30:09;100956.81;;;12.96;79.96
15263;BME280;7733;51.554;13.590;2022-07-11T04:32:35;100957.41;;;13.18;79.20
15263;BME280;7733;51.554;13.590;2022-07-11T04:35:03;100957.41;;;13.18;79.35
15263;BME280;7733;51.554;13.590;2022-07-11T04:37:28;100951.88;;;13.35;78.38
15263;BME280;7733;51.554;13.590;2022-07-11T04:39:54;100958.91;;;13.34;78.45
15263;BME280;7733;51.554;13.590;2022-07-11T04:42:20;100959.97;;;13.21;78.85
15263;BME280;7733;51.554;13.590;2022-07-11T04:44:45;100957.97;;;13.37;78.46
15263;BME280;7733;51.554;13.590;2022-07-11T04:47:11;100970.31;;;13.35;78.71
15263;BME280;7733;51.554;13.590;2022-07-11T04:49:37;100962.81;;;13.64;77.67
15263;BME280;7733;51.554;13.590;2022-07-11T04:52:04;100963.84;;;13.54;77.91
15263;BME280;7733;51.554;13.590;2022-07-11T04:54:30;100964.84;;;13.47;78.35
15263;BME280;7733;51.554;13.590;2022-07-11T04:56:56;100964.69;;;13.56;78.85
15263;BME280;7733;51.554;13.590;2022-07-11T04:59:22;100952.50;;;13.49;78.35
15263;BME280;7733;51.554;13.590;2022-07-11T05:01:49;100953.22;;;13.59;78.99
15263;BME280;7733;51.554;13.590;2022-07-11T05:04:16;100969.66;;;13.73;78.28
15263;BME280;7733;51.554;13.590;2022-07-11T05:06:41;100965.19;;;13.78;78.70
15263;BME280;7733;51.554;13.590;2022-07-11T05:09:07;100970.75;;;13.63;79.06
15263;BME280;7733;51.554;13.590;2022-07-11T05:11:35;100968.31;;;13.49;79.43
15263;BME280;7733;51.554;13.590;2022-07-11T05:14:01;100972.91;;;13.89;78.38
15263;BME280;7733;51.554;13.590;2022-07-11T05:16:27;100976.44;;;13.88;78.42
15263;BME280;7733;51.554;13.590;2022-07-11T05:18:53;100983.41;;;13.92;78.50
15263;BME280;7733;51.554;13.590;2022-07-11T05:21:18;100977.56;;;14.22;77.65
15263;BME280;7733;51.554;13.590;2022-07-11T05:23:48;100982.34;;;14.02;77.91
15263;BME280;7733;51.554;13.590;2022-07-11T05:26:14;100983.00;;;14.13;77.13
15263;BME280;7733;51.554;13.590;2022-07-11T05:28:41;100979.97;;;14.33;76.64
15263;BME280;7733;51.554;13.590;2022-07-11T05:31:06;100975.44;;;14.40;76.60
15263;BME280;7733;51.554;13.590;2022-07-11T05:33:32;100982.78;;;14.25;77.00
15263;BME280;7733;51.554;13.590;2022-07-11T05:35:59;100989.25;;;14.54;76.16
15263;BME280;7733;51.554;13.590;2022-07-11T05:38:25;100985.78;;;14.52;75.89
15263;BME280;7733;51.554;13.590;2022-07-11T05:40:50;100993.56;;;14.58;75.74
15263;BME280;7733;51.554;13.590;2022-07-11T05:43:16;100997.19;;;14.54;76.19
15263;BME280;7733;51.554;13.590;2022-07-11T05:45:42;100994.25;;;14.68;76.23
15263;BME280;7733;51.554;13.590;2022-07-11T05:48:07;100987.44;;;14.56;75.54
15263;BME280;7733;51.554;13.590;2022-07-11T05:50:33;100998.72;;;14.66;75.86
15263;BME280;7733;51.554;13.590;2022-07-11T05:53:00;100989.56;;;14.82;75.23
15263;BME280;7733;51.554;13.590;2022-07-11T05:55:28;100986.44;;;15.03;75.15
15263;BME280;7733;51.554;13.590;2022-07-11T05:57:54;100985.84;;;14.90;75.22
15263;BME280;7733;51.554;13.590;2022-07-11T06:00:20;100997.31;;;14.89;74.50
15263;BME280;7733;51.554;13.590;2022-07-11T06:02:48;100997.53;;;15.17;74.35
15263;BME280;7733;51.554;13.590;2022-07-11T06:05:14;100980.22;;;15.06;74.50
15263;BME280;7733;51.554;13.590;2022-07-11T06:07:40;100992.53;;;15.07;74.43
15263;BME280;7733;51.554;13.590;2022-07-11T06:10:23;100991.47;;;15.14;73.95
15263;BME280;7733;51.554;13.590;2022-07-11T06:12:49;100987.72;;;15.24;73.11
15263;BME280;7733;51.554;13.590;2022-07-11T06:15:15;100985.13;;;15.23;73.46
15263;BME280;7733;51.554;13.590;2022-07-11T06:17:40;100997.34;;;15.27;73.90
15263;BME280;7733;51.554;13.590;2022-07-11T06:20:07;100992.94;;;15.27;73.71
15263;BME280;7733;51.554;13.590;2022-07-11T06:22:33;100999.47;;;15.48;72.99
15263;BME280;7733;51.554;13.590;2022-07-11T06:24:59;100998.50;;;15.52;72.55
15263;BME280;7733;51.554;13.590;2022-07-11T06:27:24;101007.53;;;15.43;72.95
15263;BME280;7733;51.554;13.590;2022-07-11T06:29:50;101009.84;;;15.56;72.12
15263;BME280;7733;51.554;13.590;2022-07-11T06:32:16;100999.03;;;15.68;71.95
15263;BME280;7733;51.554;13.590;2022-07-11T06:34:41;100999.56;;;15.80;71.54
15263;BME280;7733;51.554;13.590;2022-07-11T06:37:07;100997.13;;;15.73;70.99
15263;BME280;7733;51.554;13.590;2022-07-11T06:39:33;101002.66;;;15.64;71.27
15263;BME280;7733;51.554;13.590;2022-07-11T06:41:59;101005.31;;;15.96;70.27
15263;BME280;7733;51.554;13.590;2022-07-11T06:44:24;101007.16;;;15.94;70.72
15263;BME280;7733;51.554;13.590;2022-07-11T06:46:50;101007.06;;;15.97;71.39
15263;BME280;7733;51.554;13.590;2022-07-11T06:49:17;101007.84;;;16.02;70.45
15263;BME280;7733;51.554;13.590;2022-07-11T06:51:43;101007.69;;;16.07;70.20
15263;BME280;7733;51.554;13.590;2022-07-11T06:54:08;101007.06;;;15.97;70.28
15263;BME280;7733;51.554;13.590;2022-07-11T06:56:34;101000.59;;;16.09;70.03
15263;BME280;7733;51.554;13.590;2022-07-11T06:58:59;101008.00;;;16.29;69.89
15263;BME280;7733;51.554;13.590;2022-07-11T07:01:25;101010.72;;;16.26;69.35
15263;BME280;7733;51.554;13.590;2022-07-11T07:03:51;101007.28;;;16.53;67.97
15263;BME280;7733;51.554;13.590;2022-07-11T07:06:17;101011.84;;;16.48;67.98
15263;BME280;7733;51.554;13.590;2022-07-11T07:08:42;101015.47;;;16.77;68.11
15263;BME280;7733;51.554;13.590;2022-07-11T07:11:08;101007.03;;;16.62;67.84
15263;BME280;7733;51.554;13.590;2022-07-11T07:13:33;101006.69;;;16.43;68.26
15263;BME280;7733;51.554;13.590;2022-07-11T07:15:59;101012.69;;;16.50;68.08
15263;BME280;7733;51.554;13.590;2022-07-11T07:18:25;101011.53;;;16.59;67.74
15263;BME280;7733;51.554;13.590;2022-07-11T07:20:52;101009.31;;;16.76;66.47
15263;BME280;7733;51.554;13.590;2022-07-11T07:23:18;101007.56;;;16.75;67.16
15263;BME280;7733;51.554;13.590;2022-07-11T07:25:44;101007.00;;;16.64;66.42
15263;BME280;7733;51.554;13.590;2022-07-11T07:28:10;101010.63;;;16.91;66.12
15263;BME280;7733;51.554;13.590;2022-07-11T07:30:36;101005.53;;;17.13;65.92
15263;BME280;7733;51.554;13.590;2022-07-11T07:33:02;101006.81;;;16.99;65.64
15263;BME280;7733;51.554;13.590;2022-07-11T07:35:28;101007.75;;;16.69;66.31
15263;BME280;7733;51.554;13.590;2022-07-11T07:37:54;101012.00;;;16.75;65.82
15263;BME280;7733;51.554;13.590;2022-07-11T07:40:20;101014.16;;;16.91;65.86
15263;BME280;7733;51.554;13.590;2022-07-11T07:42:47;101006.75;;;17.02;64.83
15263;BME280;7733;51.554;13.590;2022-07-11T07:45:13;101009.31;;;17.60;63.79
15263;BME280;7733;51.554;13.590;2022-07-11T07:47:38;101009.63;;;17.51;63.41
15263;BME280;7733;51.554;13.590;2022-07-11T07:50:05;101013.47;;;17.41;64.12
15263;BME280;7733;51.554;13.590;2022-07-11T07:52:31;101011.84;;;17.37;63.63
15263;BME280;7733;51.554;13.590;2022-07-11T07:54:58;101020.63;;;17.39;63.67
15263;BME280;7733;51.554;13.590;2022-07-11T07:57:23;101007.78;;;17.53;62.57
15263;BME280;7733;51.554;13.590;2022-07-11T07:59:49;101010.84;;;17.69;62.16
15263;BME280;7733;51.554;13.590;2022-07-11T08:02:14;101009.75;;;17.74;61.87
15263;BME280;7733;51.554;13.590;2022-07-11T08:04:41;101011.00;;;17.90;61.59
15263;BME280;7733;51.554;13.590;2022-07-11T08:07:06;101001.00;;;18.23;61.08
15263;BME280;7733;51.554;13.590;2022-07-11T08:09:32;101009.97;;;17.94;60.16
15263;BME280;7733;51.554;13.590;2022-07-11T08:11:58;101002.22;;;18.13;59.74
15263;BME280;7733;51.554;13.590;2022-07-11T08:14:24;101009.25;;;17.89;60.03
15263;BME280;7733;51.554;13.590;2022-07-11T08:16:50;101011.81;;;17.92;59.69
15263;BME280;7733;51.554;13.590;2022-07-11T08:19:15;101007.97;;;18.26;58.97
15263;BME280;7733;51.554;13.590;2022-07-11T08:21:41;100996.91;;;18.62;57.54
15263;BME280;7733;51.554;13.590;2022-07-11T08:24:07;100997.03;;;18.59;57.01
15263;BME280;7733;51.554;13.590;2022-07-11T08:26:33;101001.50;;;18.33;56.04
15263;BME280;7733;51.554;13.590;2022-07-11T08:29:03;101001.13;;;18.69;56.63
15263;BME280;7733;51.554;13.590;2022-07-11T08:31:29;100991.47;;;18.90;56.43
15263;BME280;7733;51.554;13.590;2022-07-11T08:33:55;100999.38;;;18.91;56.49
15263;BME280;7733;51.554;13.590;2022-07-11T08:36:23;101005.56;;;18.68;56.13
15263;BME280;7733;51.554;13.590;2022-07-11T08:38:48;101003.66;;;18.72;56.69
15263;BME280;7733;51.554;13.590;2022-07-11T08:41:14;100988.00;;;19.09;55.15
15263;BME280;7733;51.554;13.590;2022-07-11T08:43:42;100988.00;;;19.53;53.37
15263;BME280;7733;51.554;13.590;2022-07-11T08:46:10;100987.75;;;19.37;54.50
15263;BME280;7733;51.554;13.590;2022-07-11T08:48:38;100993.16;;;19.36;53.71
15263;BME280;7733;51.554;13.590;2022-07-11T08:51:07;100986.56;;;19.24;53.42
15263;BME280;7733;51.554;13.590;2022-07-11T08:53:42;100989.44;;;19.40;52.98
15263;BME280;7733;51.554;13.590;2022-07-11T08:56:11;100985.03;;;19.61;52.32
15263;BME280;7733;51.554;13.590;2022-07-11T08:58:44;100980.94;;;19.52;52.47
15263;BME280;7733;51.554;13.590;2022-07-11T09:01:15;100984.09;;;19.63;51.52
15263;BME280;7733;51.554;13.590;2022-07-11T09:03:42;100986.09;;;19.99;51.16
15263;BME280;7733;51.554;13.590;2022-07-11T09:06:08;100975.28;;;20.02;49.40
15263;BME280;7733;51.554;13.590;2022-07-11T09:08:34;100980.50;;;20.25;49.41
15263;BME280;7733;51.554;13.590;2022-07-11T09:11:01;100977.84;;;20.25;50.35
15263;BME280;7733;51.554;13.590;2022-07-11T09:13:28;100981.63;;;19.99;49.59
15263;BME280;7733;51.554;13.590;2022-07-11T09:16:02;100975.19;;;20.05;49.61
15263;BME280;7733;51.554;13.590;2022-07-11T09:18:41;100968.97;;;20.25;49.97
15263;BME280;7733;51.554;13.590;2022-07-11T09:21:09;100973.72;;;20.37;48.81
15263;BME280;7733;51.554;13.590;2022-07-11T09:23:57;100972.06;;;20.34;48.59
15263;BME280;7733;51.554;13.590;2022-07-11T09:26:45;100966.75;;;20.34;47.69
15263;BME280;7733;51.554;13.590;2022-07-11T09:29:19;100971.81;;;20.20;47.90
15263;BME280;7733;51.554;13.590;2022-07-11T09:31:47;100969.78;;;20.07;47.58
15263;BME280;7733;51.554;13.590;2022-07-11T09:34:15;100959.19;;;20.25;47.89
15263;BME280;7733;51.554;13.590;2022-07-11T09:36:46;100966.22;;;20.47;47.98
15263;BME280;7733;51.554;13.590;2022-07-11T09:39:20;100965.50;;;21.00;47.68
15263;BME280;7733;51.554;13.590;2022-07-11T09:41:47;100965.50;;;20.62;47.31
15263;BME280;7733;51.554;13.590;2022-07-11T09:44:26;100965.38;;;21.03;46.20
15263;BME280;7733;51.554;13.590;2022-07-11T09:46:57;100962.34;;;21.29;45.34
15263;BME280;7733;51.554;13.590;2022-07-11T09:49:38;100973.19;;;20.88;46.59
15263;BME280;7733;51.554;13.590;2022-07-11T09:52:13;100973.88;;;20.92;46.01
15263;BME280;7733;51.554;13.590;2022-07-11T09:54:56;100975.59;;;21.12;45.48
15263;BME280;7733;51.554;13.590;2022-07-11T09:57:38;100959.94;;;21.76;44.46
15263;BME280;7733;51.554;13.590;2022-07-11T10:00:10;100959.47;;;21.51;44.88
15263;BME280;7733;51.554;13.590;2022-07-11T10:02:38;100957.00;;;21.10;44.04
15263;BME280;7733;51.554;13.590;2022-07-11T10:05:04;100959.53;;;21.49;43.89
15263;BME280;7733;51.554;13.590;2022-07-11T10:07:31;100956.56;;;21.55;42.98
15263;BME280;7733;51.554;13.590;2022-07-11T10:09:58;100958.56;;;21.33;43.89
15263;BME280;7733;51.554;13.590;2022-07-11T10:12:25;100959.84;;;21.61;43.43
15263;BME280;7733;51.554;13.590;2022-07-11T10:14:53;100966.72;;;21.66;43.58
15263;BME280;7733;51.554;13.590;2022-07-11T10:17:46;100958.63;;;21.68;43.22
15263;BME280;7733;51.554;13.590;2022-07-11T10:20:45;100962.00;;;21.89;44.04
15263;BME280;7733;51.554;13.590;2022-07-11T10:23:26;100962.78;;;21.73;43.39
15263;BME280;7733;51.554;13.590;2022-07-11T10:28:54;100952.56;;;21.64;43.76
15263;BME280;7733;51.554;13.590;2022-07-11T10:31:25;100958.47;;;21.71;43.56
15263;BME280;7733;51.554;13.590;2022-07-11T10:34:08;100956.44;;;22.10;42.50
15263;BME280;7733;51.554;13.590;2022-07-11T10:36:45;100955.47;;;21.94;42.75
15263;BME280;7733;51.554;13.590;2022-07-11T10:39:22;100948.88;;;21.84;42.69
15263;BME280;7733;51.554;13.590;2022-07-11T10:41:53;100938.44;;;22.63;42.06
15263;BME280;7733;51.554;13.590;2022-07-11T10:44:20;100940.66;;;22.55;41.32
15263;BME280;7733;51.554;13.590;2022-07-11T10:46:45;100944.94;;;22.26;41.95
15263;BME280;7733;51.554;13.590;2022-07-11T10:57:27;100944.72;;;23.56;39.71
15263;BME280;7733;51.554;13.590;2022-07-11T11:00:06;100943.38;;;23.02;39.51
15263;BME280;7733;51.554;13.590;2022-07-11T11:03:07;100939.91;;;22.68;40.32
15263;BME280;7733;51.554;13.590;2022-07-11T11:05:44;100950.22;;;22.43;40.64
15263;BME280;7733;51.554;13.590;2022-07-11T11:11:06;100936.16;;;23.04;40.24
15263;BME280;7733;51.554;13.590;2022-07-11T11:13:35;100933.25;;;22.75;40.37
15263;BME280;7733;51.554;13.590;2022-07-11T11:16:06;100942.91;;;22.62;40.40
15263;BME280;7733;51.554;13.590;2022-07-11T11:18:43;100944.19;;;22.55;39.88
15263;BME280;7733;51.554;13.590;2022-07-11T11:23:46;100951.00;;;22.94;38.92
15263;BME280;7733;51.554;13.590;2022-07-11T11:29:18;100936.91;;;24.12;37.37
15263;BME280;7733;51.554;13.590;2022-07-11T11:31:49;100933.09;;;23.56;37.72
15263;BME280;7733;51.554;13.590;2022-07-11T11:34:15;100945.25;;;23.77;37.32
15263;BME280;7733;51.554;13.590;2022-07-11T11:36:41;100929.97;;;23.93;37.41
15263;BME280;7733;51.554;13.590;2022-07-11T11:39:07;100927.88;;;23.84;36.45
15263;BME280;7733;51.554;13.590;2022-07-11T11:41:33;100932.44;;;23.68;36.81
15263;BME280;7733;51.554;13.590;2022-07-11T11:44:00;100933.38;;;23.51;36.58
15263;BME280;7733;51.554;13.590;2022-07-11T11:46:31;100937.53;;;23.41;36.24
15263;BME280;7733;51.554;13.590;2022-07-11T11:49:03;100941.56;;;23.18;37.00
15263;BME280;7733;51.554;13.590;2022-07-11T11:51:31;100926.66;;;24.04;35.85
15263;BME280;7733;51.554;13.590;2022-07-11T11:54:01;100924.56;;;24.38;35.27
15263;BME280;7733;51.554;13.590;2022-07-11T11:56:32;100923.59;;;24.10;35.92
15263;BME280;7733;51.554;13.590;2022-07-11T11:59:11;100926.03;;;23.25;37.10
15263;BME280;7733;51.554;13.590;2022-07-11T12:01:44;100926.09;;;24.42;36.14
15263;BME280;7733;51.554;13.590;2022-07-11T12:04:13;100917.41;;;23.80;36.89
15263;BME280;7733;51.554;13.590;2022-07-11T12:09:28;100917.38;;;24.52;36.19
15263;BME280;7733;51.554;13.590;2022-07-11T12:12:26;100905.59;;;24.26;36.10
15263;BME280;7733;51.554;13.590;2022-07-11T12:15:33;100923.22;;;24.59;35.60
15263;BME280;7733;51.554;13.590;2022-07-11T12:18:18;100919.88;;;24.41;36.55
15263;BME280;7733;51.554;13.590;2022-07-11T12:20:44;100916.41;;;24.53;35.37
15263;BME280;7733;51.554;13.590;2022-07-11T12:23:15;100914.03;;;24.35;35.47
15263;BME280;7733;51.554;13.590;2022-07-11T12:25:43;100910.31;;;24.51;35.03
15263;BME280;7733;51.554;13.590;2022-07-11T12:28:09;100899.34;;;23.97;34.76
15263;BME280;7733;51.554;13.590;2022-07-11T12:30:35;100909.41;;;23.94;33.83
15263;BME280;7733;51.554;13.590;2022-07-11T12:33:04;100902.91;;;24.12;33.02
15263;BME280;7733;51.554;13.590;2022-07-11T12:35:29;100907.41;;;23.83;32.44
15263;BME280;7733;51.554;13.590;2022-07-11T12:37:55;100908.94;;;23.87;33.23
15263;BME280;7733;51.554;13.590;2022-07-11T12:40:21;100911.25;;;24.65;32.35
15263;BME280;7733;51.554;13.590;2022-07-11T12:42:47;100917.16;;;23.98;34.35
15263;BME280;7733;51.554;13.590;2022-07-11T12:45:14;100903.97;;;24.67;34.19
15263;BME280;7733;51.554;13.590;2022-07-11T12:47:48;100908.50;;;23.79;34.66
15263;BME280;7733;51.554;13.590;2022-07-11T12:50:24;100912.63;;;24.43;34.03
15263;BME280;7733;51.554;13.590;2022-07-11T12:52:56;100909.34;;;24.94;33.79
15263;BME280;7733;51.554;13.590;2022-07-11T12:55:31;100893.22;;;24.67;33.89
15263;BME280;7733;51.554;13.590;2022-07-11T12:58:13;100911.34;;;24.49;34.06
15263;BME280;7733;51.554;13.590;2022-07-11T13:00:55;100903.00;;;24.53;33.96
15263;BME280;7733;51.554;13.590;2022-07-11T13:03:32;100898.16;;;24.87;33.20
15263;BME280;7733;51.554;13.590;2022-07-11T13:05:59;100884.69;;;25.68;32.12
15263;BME280;7733;51.554;13.590;2022-07-11T13:11:19;100893.22;;;24.67;34.69
15263;BME280;7733;51.554;13.590;2022-07-11T13:13:47;100905.69;;;24.39;33.99
15263;BME280;7733;51.554;13.590;2022-07-11T13:16:15;100900.03;;;23.57;35.62
15263;BME280;7733;51.554;13.590;2022-07-11T13:18:42;100893.06;;;24.27;35.62
15263;BME280;7733;51.554;13.590;2022-07-11T13:21:08;100888.34;;;24.16;35.03